createdAt,value
2022-11-16T00:00:14.920Z,96901.03
2022-11-16T00:02:16.993Z,96906.81
2022-11-16T00:04:18.792Z,96896.47
2022-11-16T00:06:20.926Z,96898.00
2022-11-16T00:08:22.321Z,96887.72
2022-11-16T00:10:24.685Z,96885.03
2022-11-16T00:12:28.084Z,96883.34
2022-11-16T00:14:30.687Z,96889.22
2022-11-16T00:16:34.262Z,96885.06
2022-11-16T00:18:36.273Z,96883.47
2022-11-16T00:20:40.106Z,96880.19
2022-11-16T00:22:43.498Z,96882.84
2022-11-16T00:24:46.968Z,96878.78
2022-11-16T00:26:48.310Z,96882.28
2022-11-16T00:28:50.126Z,96877.34
2022-11-16T00:30:52.934Z,96882.47
2022-11-16T00:32:54.910Z,96889.34
2022-11-16T00:34:56.217Z,96887.78
2022-11-16T00:36:58.221Z,96882.84
2022-11-16T00:38:59.492Z,96871.06
2022-11-16T00:43:58.685Z,96871.22
2022-11-16T00:46:05.294Z,96856.91
2022-11-16T00:48:09.033Z,96858.69
2022-11-16T00:50:11.339Z,96862.16
2022-11-16T00:52:12.624Z,96855.44
2022-11-16T00:54:14.157Z,96858.91
2022-11-16T00:56:16.465Z,96853.84
2022-11-16T00:58:19.637Z,96848.81
2022-11-16T01:00:21.906Z,96849.75
2022-11-16T01:02:24.896Z,96854.78
2022-11-16T01:04:26.173Z,96854.00
2022-11-16T01:06:28.225Z,96859.06
2022-11-16T01:08:30.761Z,96847.22
2022-11-16T01:10:38.337Z,96853.16
2022-11-16T01:12:39.609Z,96854.84
2022-11-16T01:14:40.885Z,96840.44
2022-11-16T01:19:09.763Z,96849.53
2022-11-16T01:21:11.044Z,96845.19
2022-11-16T01:23:13.050Z,96842.47
2022-11-16T01:25:14.354Z,96837.28
2022-11-16T01:27:16.671Z,96838.03
2022-11-16T01:29:17.989Z,96829.41
2022-11-16T01:31:19.286Z,96841.16
2022-11-16T01:33:21.672Z,96839.31
2022-11-16T01:35:22.977Z,96834.94
2022-11-16T01:37:24.257Z,96832.22
2022-11-16T01:39:28.068Z,96825.31
2022-11-16T01:41:29.358Z,96828.53
2022-11-16T01:43:32.357Z,96830.13
2022-11-16T01:45:33.648Z,96823.22
2022-11-16T01:47:38.236Z,96828.19
2022-11-16T01:49:40.793Z,96830.03
2022-11-16T01:51:42.063Z,96823.25
2022-11-16T01:53:43.797Z,96830.06
2022-11-16T01:55:47.338Z,96830.22
2022-11-16T01:57:49.340Z,96819.34
2022-11-16T01:59:52.653Z,96821.97
2022-11-16T02:01:56.234Z,96825.50
2022-11-16T02:03:57.512Z,96812.06
2022-11-16T02:05:59.635Z,96812.19
2022-11-16T02:08:19.701Z,96803.88
2022-11-16T02:10:23.840Z,96806.47
2022-11-16T02:12:25.147Z,96806.59
2022-11-16T02:14:29.245Z,96804.16
2022-11-16T02:16:33.521Z,96805.97
2022-11-16T02:18:35.160Z,96807.72
2022-11-16T02:20:36.633Z,96823.88
2022-11-16T02:22:38.785Z,96807.78
2022-11-16T02:24:40.073Z,96799.47
2022-11-16T02:26:41.988Z,96794.47
2022-11-16T02:28:44.257Z,96803.00
2022-11-16T02:30:48.135Z,96792.06
2022-11-16T02:32:49.420Z,96803.94
2022-11-16T02:34:51.073Z,96786.22
2022-11-16T02:36:53.356Z,96788.78
2022-11-16T02:38:54.625Z,96783.72
2022-11-16T02:40:58.519Z,96788.00
2022-11-16T02:42:59.797Z,96788.78
2022-11-16T02:45:01.070Z,96786.31
2022-11-16T02:47:06.984Z,96780.38
2022-11-16T02:49:10.771Z,96784.53
2022-11-16T02:51:12.044Z,96787.91
2022-11-16T02:53:14.382Z,96780.13
2022-11-16T02:55:16.961Z,96785.13
2022-11-16T02:57:18.228Z,96786.66
2022-11-16T02:59:19.512Z,96778.88
2022-11-16T03:01:25.199Z,96773.72
2022-11-16T03:03:27.545Z,96770.09
2022-11-16T03:05:34.687Z,96763.25
2022-11-16T03:07:36.754Z,96765.59
2022-11-16T03:09:38.085Z,96751.03
2022-11-16T03:12:00.199Z,96757.63
2022-11-16T03:14:04.534Z,96752.34
2022-11-16T03:16:05.890Z,96757.22
2022-11-16T03:18:11.823Z,96753.66
2022-11-16T03:20:13.115Z,96756.94
2022-11-16T03:22:16.597Z,96759.47
2022-11-16T03:24:17.877Z,96752.72
2022-11-16T03:26:19.178Z,96752.78
2022-11-16T03:28:20.687Z,96752.91
2022-11-16T03:30:23.794Z,96749.66
2022-11-16T03:32:25.462Z,96752.34
2022-11-16T03:34:26.886Z,96761.78
2022-11-16T03:36:28.459Z,96749.22
2022-11-16T03:38:29.784Z,96752.72
2022-11-16T03:40:31.264Z,96767.28
2022-11-16T03:42:32.561Z,96759.81
2022-11-16T03:44:33.923Z,96762.38
2022-11-16T03:46:35.209Z,96767.63
2022-11-16T03:48:36.920Z,96764.28
2022-11-16T03:50:38.394Z,96761.03
2022-11-16T03:52:39.731Z,96759.38
2022-11-16T03:54:41.240Z,96754.41
2022-11-16T03:56:42.504Z,96746.88
2022-11-16T03:58:43.840Z,96747.78
2022-11-16T04:00:45.170Z,96738.59
2022-11-16T04:02:46.500Z,96740.34
2022-11-16T04:05:06.676Z,96730.25
2022-11-16T04:07:26.725Z,96726.09
2022-11-16T04:09:46.953Z,96727.78
2022-11-16T04:12:06.846Z,96721.09
2022-11-16T04:14:26.753Z,96727.88
2022-11-16T04:16:46.633Z,96725.34
2022-11-16T04:19:06.477Z,96722.84
2022-11-16T04:21:26.362Z,96718.66
2022-11-16T04:23:46.241Z,96723.66
2022-11-16T04:25:47.887Z,96720.16
2022-11-16T04:28:07.820Z,96709.09
2022-11-16T04:30:09.124Z,96713.16
2022-11-16T04:32:29.118Z,96698.66
2022-11-16T04:34:49.150Z,96698.44
2022-11-16T04:37:09.012Z,96700.84
2022-11-16T04:39:10.301Z,96691.28
2022-11-16T04:41:31.538Z,96694.50
2022-11-16T04:43:32.980Z,96695.19
2022-11-16T04:45:52.998Z,96686.53
2022-11-16T04:47:54.390Z,96687.13
2022-11-16T04:49:55.687Z,96691.09
2022-11-16T04:51:56.961Z,96711.25
2022-11-16T04:53:58.253Z,96683.19
2022-11-16T04:56:01.045Z,96687.38
2022-11-16T04:58:02.470Z,96687.38
2022-11-16T05:00:03.904Z,96685.72
2022-11-16T05:02:08.366Z,96681.56
2022-11-16T05:04:09.722Z,96679.16
2022-11-16T05:06:11.001Z,96680.16
2022-11-16T05:08:12.338Z,96682.88
2022-11-16T05:10:14.094Z,96684.72
2022-11-16T05:12:16.285Z,96688.28
2022-11-16T05:14:17.553Z,96685.03
2022-11-16T05:16:18.841Z,96684.34
2022-11-16T05:18:20.170Z,96681.91
2022-11-16T05:20:40.055Z,96686.28
2022-11-16T05:22:41.353Z,96688.13
2022-11-16T05:24:42.687Z,96684.78
2022-11-16T05:26:44.426Z,96687.41
2022-11-16T05:28:45.757Z,96690.00
2022-11-16T05:30:49.200Z,96688.41
2022-11-16T05:32:50.465Z,96688.56
2022-11-16T05:34:52.232Z,96691.97
2022-11-16T05:36:53.778Z,96695.44
2022-11-16T05:38:56.349Z,96701.47
2022-11-16T05:40:57.852Z,96698.97
2022-11-16T05:43:01.996Z,96701.56
2022-11-16T05:45:03.465Z,96705.78
2022-11-16T05:47:04.744Z,96703.31
2022-11-16T05:49:11.020Z,96703.31
2022-11-16T05:51:12.789Z,96697.50
2022-11-16T05:53:17.090Z,96702.56
2022-11-16T05:55:18.640Z,96707.66
2022-11-16T05:57:20.299Z,96712.63
2022-11-16T05:59:21.641Z,96704.97
2022-11-16T06:01:22.981Z,96702.28
2022-11-16T06:03:24.948Z,96704.69
2022-11-16T06:05:26.293Z,96727.47
2022-11-16T06:07:27.788Z,96706.13
2022-11-16T06:09:30.916Z,96706.03
2022-11-16T06:11:35.680Z,96699.94
2022-11-16T06:13:38.167Z,96693.00
2022-11-16T06:15:41.215Z,96700.50
2022-11-16T06:17:42.480Z,96699.47
2022-11-16T06:19:44.328Z,96701.00
2022-11-16T06:21:47.001Z,96699.94
2022-11-16T06:23:48.344Z,96687.00
2022-11-16T06:25:51.550Z,96691.06
2022-11-16T06:27:52.827Z,96682.41
2022-11-16T06:29:54.108Z,96689.03
2022-11-16T06:31:56.009Z,96687.25
2022-11-16T06:33:57.293Z,96683.09
2022-11-16T06:35:58.614Z,96685.72
2022-11-16T06:38:01.733Z,96687.50
2022-11-16T06:40:03.220Z,96678.28
2022-11-16T06:42:04.527Z,96683.53
2022-11-16T06:44:10.993Z,96689.56
2022-11-16T06:46:14.961Z,96691.47
2022-11-16T06:48:16.240Z,96690.69
2022-11-16T06:50:20.638Z,96693.47
2022-11-16T06:52:22.192Z,96692.81
2022-11-16T06:54:24.356Z,96696.28
2022-11-16T06:56:25.637Z,96698.91
2022-11-16T06:58:26.920Z,96702.41
2022-11-16T07:00:29.197Z,96706.72
2022-11-16T07:02:30.527Z,96705.13
2022-11-16T07:04:35.497Z,96707.72
2022-11-16T07:06:38.599Z,96709.53
2022-11-16T07:08:39.927Z,96707.06
2022-11-16T07:10:41.200Z,96707.19
2022-11-16T07:12:44.049Z,96708.94
2022-11-16T07:14:45.571Z,96706.47
2022-11-16T07:16:46.853Z,96709.09
2022-11-16T07:18:49.054Z,96708.31
2022-11-16T07:20:50.328Z,96717.66
2022-11-16T07:22:51.614Z,96732.09
2022-11-16T07:24:53.133Z,96715.19
2022-11-16T07:26:54.476Z,96716.88
2022-11-16T07:28:55.749Z,96714.41
2022-11-16T07:30:59.203Z,96723.72
2022-11-16T07:33:00.521Z,96727.03
2022-11-16T07:35:04.804Z,96711.88
2022-11-16T07:37:06.088Z,96713.41
2022-11-16T07:39:09.331Z,96711.63
2022-11-16T07:43:37.912Z,96707.97
2022-11-16T07:45:39.190Z,96571.63
2022-11-16T07:47:41.186Z,96705.09
2022-11-16T07:49:44.072Z,96706.63
2022-11-16T07:51:47.521Z,96709.88
2022-11-16T07:53:48.789Z,96710.59
2022-11-16T07:55:52.479Z,96708.81
2022-11-16T07:57:55.601Z,96711.94
2022-11-16T07:59:57.293Z,96712.56
2022-11-16T08:01:59.332Z,96714.09
2022-11-16T08:04:03.989Z,96709.69
2022-11-16T08:06:06.284Z,96704.41
2022-11-16T08:08:09.325Z,96706.91
2022-11-16T08:10:10.706Z,96707.78
2022-11-16T08:12:12.939Z,96701.16
2022-11-16T08:14:17.894Z,96705.44
2022-11-16T08:16:19.192Z,96699.63
2022-11-16T08:18:21.291Z,96703.13
2022-11-16T08:20:22.609Z,96704.94
2022-11-16T08:22:23.905Z,96700.00
2022-11-16T08:24:26.381Z,96711.97
2022-11-16T08:26:27.786Z,96706.19
2022-11-16T08:28:29.107Z,96707.97
2022-11-16T08:30:32.557Z,96709.00
2022-11-16T08:32:33.862Z,96709.09
2022-11-16T08:34:38.789Z,96703.28
2022-11-16T08:36:40.107Z,96696.63
2022-11-16T08:38:41.409Z,96696.69
2022-11-16T08:40:44.725Z,96692.53
2022-11-16T08:42:46.014Z,96687.53
2022-11-16T08:44:48.858Z,96690.97
2022-11-16T08:46:50.189Z,96690.22
2022-11-16T08:48:52.522Z,96699.59
2022-11-16T08:51:16.317Z,96697.13
2022-11-16T08:53:16.091Z,96684.50
2022-11-16T08:55:18.569Z,96677.81
2022-11-16T08:57:21.071Z,96683.81
2022-11-16T08:59:25.111Z,96686.38
2022-11-16T09:01:26.643Z,96677.91
2022-11-16T09:03:28.528Z,96675.41
2022-11-16T09:05:29.820Z,96678.84
2022-11-16T09:07:31.762Z,96674.59
2022-11-16T09:09:33.094Z,96677.91
2022-11-16T09:14:01.248Z,96681.19
2022-11-16T09:16:06.353Z,96680.16
2022-11-16T09:18:09.021Z,96677.50
2022-11-16T09:20:10.862Z,96679.13
2022-11-16T09:22:12.508Z,96683.25
2022-11-16T09:24:13.801Z,96683.97
2022-11-16T09:26:15.116Z,96678.75
2022-11-16T09:28:17.641Z,96686.22
2022-11-16T09:30:18.921Z,96681.03
2022-11-16T09:32:22.322Z,96683.38
2022-11-16T09:34:23.633Z,96674.72
2022-11-16T09:36:24.908Z,96535.09
2022-11-16T09:38:40.197Z,96671.78
2022-11-16T09:40:48.065Z,96670.75
2022-11-16T09:42:53.011Z,96676.59
2022-11-16T09:44:57.221Z,96666.41
2022-11-16T09:46:58.755Z,96663.03
2022-11-16T09:49:00.099Z,96655.47
2022-11-16T09:51:05.984Z,96666.50
2022-11-16T09:53:12.550Z,96656.50
2022-11-16T09:55:16.116Z,96653.28
2022-11-16T09:57:17.604Z,96655.88
2022-11-16T09:59:19.712Z,96656.94
2022-11-16T10:01:21.270Z,96653.66
2022-11-16T10:03:23.438Z,96655.53
2022-11-16T10:05:24.744Z,96661.56
2022-11-16T10:07:29.654Z,96654.06
2022-11-16T10:09:32.833Z,96655.00
2022-11-16T10:14:04.243Z,96651.81
2022-11-16T10:16:05.893Z,96656.13
2022-11-16T10:18:09.828Z,96652.78
2022-11-16T10:20:13.341Z,96652.06
2022-11-16T10:22:14.749Z,96650.47
2022-11-16T10:24:19.766Z,96652.19
2022-11-16T10:26:21.054Z,96652.31
2022-11-16T10:28:22.884Z,96639.63
2022-11-16T10:30:28.243Z,96648.16
2022-11-16T10:32:29.541Z,96643.97
2022-11-16T10:34:32.517Z,96649.97
2022-11-16T10:36:35.389Z,96640.66
2022-11-16T10:38:38.128Z,96642.38
2022-11-16T10:40:39.837Z,96639.03
2022-11-16T10:42:41.185Z,96641.50
2022-11-16T10:44:45.788Z,96637.25
2022-11-16T10:46:54.487Z,96641.41
2022-11-16T10:48:55.793Z,96633.78
2022-11-16T10:51:01.022Z,96634.53
2022-11-16T10:53:03.681Z,96631.88
2022-11-16T10:55:04.957Z,96634.31
2022-11-16T10:57:06.405Z,96637.59
2022-11-16T10:59:09.164Z,96627.34
2022-11-16T11:01:13.286Z,96633.16
2022-11-16T11:03:15.798Z,96636.38
2022-11-16T11:05:17.282Z,96633.72
2022-11-16T11:07:18.705Z,96626.81
2022-11-16T11:09:20.076Z,96628.31
2022-11-16T11:11:39.992Z,96629.84
2022-11-16T11:13:41.283Z,96625.38
2022-11-16T11:15:42.632Z,96632.88
2022-11-16T11:17:46.621Z,96602.81
2022-11-16T11:19:47.914Z,96626.66
2022-11-16T11:21:49.334Z,96629.22
2022-11-16T11:23:52.382Z,96621.75
2022-11-16T11:25:53.711Z,96624.31
2022-11-16T11:27:55.194Z,96619.34
2022-11-16T11:29:58.729Z,96616.88
2022-11-16T11:32:00.047Z,96611.06
2022-11-16T11:34:01.678Z,96615.41
2022-11-16T11:36:03.144Z,96611.38
2022-11-16T11:38:08.369Z,96609.81
2022-11-16T11:40:09.893Z,96615.03
2022-11-16T11:42:11.241Z,96612.59
2022-11-16T11:44:12.534Z,96608.44
2022-11-16T11:46:13.967Z,96609.38
2022-11-16T11:48:15.346Z,96601.06
2022-11-16T11:50:16.884Z,96604.50
2022-11-16T11:52:18.309Z,96604.56
2022-11-16T11:54:19.589Z,96602.94
2022-11-16T11:56:20.945Z,96603.88
2022-11-16T11:58:22.609Z,96603.91
2022-11-16T12:00:24.010Z,96603.97
2022-11-16T12:02:25.669Z,96604.91
2022-11-16T12:04:27.002Z,96599.91
2022-11-16T12:06:28.325Z,96607.53
2022-11-16T12:08:29.621Z,96605.06
2022-11-16T12:10:30.906Z,96609.31
2022-11-16T12:12:32.196Z,96604.31
2022-11-16T12:14:33.480Z,96604.25
2022-11-16T12:16:34.797Z,96607.63
2022-11-16T12:18:36.087Z,96595.78
2022-11-16T12:20:37.530Z,96598.38
2022-11-16T12:22:38.829Z,96600.78
2022-11-16T12:24:43.077Z,96597.38
2022-11-16T12:26:46.014Z,96600.66
2022-11-16T12:28:51.038Z,96606.44
2022-11-16T12:30:52.703Z,96595.31
2022-11-16T12:32:53.989Z,96600.25
2022-11-16T12:34:55.467Z,96601.81
2022-11-16T12:36:56.738Z,96602.59
2022-11-16T12:38:58.019Z,96598.25
2022-11-16T12:40:59.339Z,96603.16
2022-11-16T12:43:00.665Z,96597.88
2022-11-16T12:45:01.932Z,96597.63
2022-11-16T12:47:03.228Z,96601.69
2022-11-16T12:49:04.528Z,96601.59
2022-11-16T12:51:05.812Z,96606.50
2022-11-16T12:53:07.133Z,96606.47
2022-11-16T12:57:29.753Z,96605.56
2022-11-16T12:59:31.028Z,96608.28
2022-11-16T13:01:32.322Z,96603.31
2022-11-16T13:03:34.044Z,96602.53
2022-11-16T13:05:35.621Z,96598.44
2022-11-16T13:07:36.920Z,96610.44
2022-11-16T13:09:38.289Z,96603.81
2022-11-16T13:11:39.633Z,96607.31
2022-11-16T13:13:40.914Z,96596.47
2022-11-16T13:15:42.266Z,96594.81
2022-11-16T13:17:43.550Z,96592.38
2022-11-16T13:19:44.893Z,96595.03
2022-11-16T13:21:46.397Z,96591.75
2022-11-16T13:23:47.749Z,96586.72
2022-11-16T13:25:49.057Z,96590.19
2022-11-16T13:27:50.402Z,96583.50
2022-11-16T13:29:51.901Z,96581.88
2022-11-16T13:31:56.229Z,96580.28
2022-11-16T13:34:00.311Z,96579.44
2022-11-16T13:36:04.441Z,96575.28
2022-11-16T13:38:05.724Z,96575.28
2022-11-16T13:40:07.127Z,96583.81
2022-11-16T13:42:08.457Z,96573.75
2022-11-16T13:44:12.864Z,96582.22
2022-11-16T13:46:27.709Z,96580.53
2022-11-16T13:48:35.997Z,96577.94
2022-11-16T13:50:38.149Z,96571.22
2022-11-16T13:53:09.222Z,96571.22
2022-11-16T13:55:01.633Z,96577.91
2022-11-16T13:57:02.929Z,96571.81
2022-11-16T13:59:04.252Z,96574.31
2022-11-16T14:01:07.438Z,96571.63
2022-11-16T14:03:08.872Z,96570.66
2022-11-16T14:05:10.155Z,96567.06
2022-11-16T14:07:11.460Z,96566.06
2022-11-16T14:09:12.929Z,96561.72
2022-11-16T14:11:14.215Z,96566.66
2022-11-16T14:13:15.532Z,96563.06
2022-11-16T14:15:16.851Z,96560.25
2022-11-16T14:17:18.133Z,96561.75
2022-11-16T14:19:19.429Z,96557.38
2022-11-16T14:21:21.874Z,96552.19
2022-11-16T14:23:23.184Z,96557.16
2022-11-16T14:25:24.487Z,96552.06
2022-11-16T14:27:30.469Z,96550.47
2022-11-16T14:29:32.156Z,96550.56
2022-11-16T14:31:33.638Z,96543.88
2022-11-16T14:33:35.159Z,96541.47
2022-11-16T14:35:36.765Z,96547.50
2022-11-16T14:37:38.127Z,96544.28
2022-11-16T14:39:41.172Z,96535.97
2022-11-16T14:41:42.437Z,96532.84
2022-11-16T14:43:44.056Z,96534.66
2022-11-16T14:45:45.554Z,96536.44
2022-11-16T14:47:46.891Z,96532.31
2022-11-16T14:49:48.160Z,96531.59
2022-11-16T14:51:49.491Z,96540.16
2022-11-16T14:53:50.780Z,96531.81
2022-11-16T14:55:52.072Z,96532.72
2022-11-16T14:57:53.344Z,96535.38
2022-11-16T14:59:57.656Z,96530.38
2022-11-16T15:01:59.062Z,96536.41
2022-11-16T15:04:02.470Z,96539.06
2022-11-16T15:06:03.839Z,96536.59
2022-11-16T15:08:05.162Z,96526.50
2022-11-16T15:10:06.493Z,96537.50
2022-11-16T15:12:26.597Z,96531.63
2022-11-16T15:14:27.994Z,96538.47
2022-11-16T15:16:29.283Z,96531.75
2022-11-16T15:18:30.566Z,96536.84
2022-11-16T15:20:33.396Z,96529.22
2022-11-16T15:22:34.662Z,96524.94
2022-11-16T15:24:36.153Z,96532.47
2022-11-16T15:26:37.416Z,96529.81
2022-11-16T15:28:38.701Z,96528.78
2022-11-16T15:30:40.489Z,96528.63
2022-11-16T15:32:41.786Z,96530.19
2022-11-16T15:34:45.857Z,96532.56
2022-11-16T15:36:47.827Z,96524.75
2022-11-16T15:38:52.090Z,96523.75
2022-11-16T15:40:53.904Z,96526.97
2022-11-16T15:42:55.207Z,96519.19
2022-11-16T15:44:56.544Z,96527.38
2022-11-16T15:46:57.889Z,96522.84
2022-11-16T15:48:59.182Z,96531.06
2022-11-16T15:51:04.880Z,96530.03
2022-11-16T15:53:12.576Z,96531.50
2022-11-16T15:55:13.895Z,96526.34
2022-11-16T15:57:15.419Z,96528.91
2022-11-16T15:59:19.844Z,96523.03
2022-11-16T16:01:24.222Z,96525.69
2022-11-16T16:03:28.800Z,96520.72
2022-11-16T16:05:30.124Z,96522.59
2022-11-16T16:07:31.502Z,96521.88
2022-11-16T16:09:33.021Z,96525.38
2022-11-16T16:11:34.315Z,96520.47
2022-11-16T16:13:35.884Z,96512.22
2022-11-16T16:15:37.380Z,96514.88
2022-11-16T16:17:41.432Z,96516.69
2022-11-16T16:19:42.713Z,96512.59
2022-11-16T16:21:44.113Z,96513.56
2022-11-16T16:23:45.749Z,96519.66
2022-11-16T16:25:50.590Z,96517.19
2022-11-16T16:27:58.943Z,96515.63
2022-11-16T16:30:00.228Z,96518.22
2022-11-16T16:32:01.507Z,96514.94
2022-11-16T16:34:05.614Z,96513.34
2022-11-16T16:36:07.178Z,96514.28
2022-11-16T16:38:08.578Z,96519.47
2022-11-16T16:40:09.872Z,96517.03
2022-11-16T16:42:11.630Z,96517.97
2022-11-16T16:44:13.013Z,96522.25
2022-11-16T16:46:17.232Z,96523.09
2022-11-16T16:48:18.508Z,96518.13
2022-11-16T16:50:19.841Z,96517.28
2022-11-16T16:52:21.235Z,96520.66
2022-11-16T16:54:22.525Z,96517.28
2022-11-16T16:56:29.554Z,96507.97
2022-11-16T16:58:30.850Z,96508.66
2022-11-16T17:00:32.254Z,96512.00
2022-11-16T17:02:33.821Z,96508.47
2022-11-16T17:04:35.106Z,96506.59
2022-11-16T17:06:36.394Z,96508.16
2022-11-16T17:08:38.215Z,96516.44
2022-11-16T17:10:39.504Z,96509.44
2022-11-16T17:12:40.801Z,96507.63
2022-11-16T17:14:42.300Z,96506.59
2022-11-16T17:16:43.585Z,96504.69
2022-11-16T17:18:44.942Z,96506.16
2022-11-16T17:20:46.343Z,96499.94
2022-11-16T17:22:47.682Z,96497.94
2022-11-16T17:24:49.309Z,96507.84
2022-11-16T17:26:56.934Z,96498.38
2022-11-16T17:28:58.218Z,96503.44
2022-11-16T17:30:59.493Z,96504.19
2022-11-16T17:33:01.008Z,96500.03
2022-11-16T17:35:02.306Z,96501.94
2022-11-16T17:37:03.751Z,96499.50
2022-11-16T17:39:06.315Z,96504.75
2022-11-16T17:41:07.717Z,96507.41
2022-11-16T17:43:09.025Z,96509.31
2022-11-16T17:45:13.093Z,96512.84
2022-11-16T17:47:14.491Z,96505.44
2022-11-16T17:49:15.891Z,96513.22
2022-11-16T17:51:20.194Z,96512.50
2022-11-16T17:53:21.495Z,96510.13
2022-11-16T17:55:23.010Z,96509.41
2022-11-16T17:57:24.302Z,96507.81
2022-11-16T17:59:29.571Z,96511.31
2022-11-16T18:01:31.560Z,96511.38
2022-11-16T18:03:33.169Z,96513.19
2022-11-16T18:05:34.736Z,96363.81
2022-11-16T18:07:37.867Z,96509.13
2022-11-16T18:09:42.029Z,96504.13
2022-11-16T18:11:43.366Z,96512.72
2022-11-16T18:13:44.717Z,96517.09
2022-11-16T18:15:46.006Z,96507.78
2022-11-16T18:17:50.309Z,96507.03
2022-11-16T18:19:51.606Z,96507.84
2022-11-16T18:21:52.889Z,96502.03
2022-11-16T18:23:57.046Z,96498.66
2022-11-16T18:26:04.317Z,96450.91
2022-11-16T18:28:08.240Z,96501.19
2022-11-16T18:30:12.258Z,96493.53
2022-11-16T18:32:13.791Z,96501.09
2022-11-16T18:34:15.232Z,96503.47
2022-11-16T18:36:16.578Z,96494.88
2022-11-16T18:38:21.073Z,96495.56
2022-11-16T18:40:25.266Z,96499.59
2022-11-16T18:42:27.081Z,96500.28
2022-11-16T18:46:47.201Z,96491.44
2022-11-16T18:48:57.324Z,96487.84
2022-11-16T18:51:17.431Z,96490.19
2022-11-16T18:53:37.389Z,96480.56
2022-11-16T18:55:58.490Z,96487.06
2022-11-16T18:57:59.853Z,96482.53
2022-11-16T19:00:16.162Z,96481.41
2022-11-16T19:02:39.339Z,96480.44
2022-11-16T19:04:53.117Z,96482.06
2022-11-16T19:07:03.187Z,96489.75
2022-11-16T19:09:16.870Z,96490.75
2022-11-16T19:11:21.366Z,96485.84
2022-11-16T19:13:26.129Z,96491.09
2022-11-16T19:15:28.241Z,96493.78
2022-11-16T19:20:06.682Z,96488.31
2022-11-16T19:22:20.081Z,96491.06
2022-11-16T19:24:36.357Z,96491.22
2022-11-16T19:26:59.346Z,96496.50
2022-11-16T19:29:04.086Z,96494.16
2022-11-16T19:31:05.528Z,96497.63
2022-11-16T19:33:09.630Z,96492.66
2022-11-16T19:35:23.754Z,96497.00
2022-11-16T19:37:31.233Z,96496.28
2022-11-16T19:39:38.862Z,96495.50
2022-11-16T19:41:46.173Z,96494.78
2022-11-16T19:43:57.156Z,96488.09
2022-11-16T19:46:07.399Z,96485.66
2022-11-16T19:48:12.303Z,96490.84
2022-11-16T19:50:25.649Z,96493.41
2022-11-16T19:52:38.878Z,96493.50
2022-11-16T19:54:43.262Z,96496.06
2022-11-16T19:56:49.271Z,96497.84
2022-11-16T19:58:54.142Z,96499.53
2022-11-16T20:00:55.483Z,96502.88
2022-11-16T20:02:57.347Z,96502.88
2022-11-16T20:05:04.810Z,96496.91
2022-11-16T20:07:07.598Z,96488.34
2022-11-16T20:09:09.210Z,96500.91
2022-11-16T20:11:10.641Z,96499.03
2022-11-16T20:13:11.941Z,96491.22
2022-11-16T20:15:13.401Z,96494.41
2022-11-16T20:17:14.691Z,96484.91
2022-11-16T20:19:17.278Z,96487.34
2022-11-16T20:21:18.790Z,96488.84
2022-11-16T20:23:20.090Z,96484.44
2022-11-16T20:25:21.360Z,96489.34
2022-11-16T20:27:23.305Z,96491.69
2022-11-16T20:29:24.623Z,96493.13
2022-11-16T20:31:25.899Z,96492.84
2022-11-16T20:33:27.253Z,96490.06
2022-11-16T20:35:28.694Z,96484.72
2022-11-16T20:37:29.985Z,96486.44
2022-11-16T20:39:31.259Z,96492.34
2022-11-16T20:41:35.741Z,96491.59
2022-11-16T20:43:39.309Z,96485.88
2022-11-16T20:45:40.631Z,96485.22
2022-11-16T20:47:41.957Z,96482.94
2022-11-16T20:49:43.236Z,96489.91
2022-11-16T20:51:47.549Z,96495.16
2022-11-16T20:53:48.885Z,96496.25
2022-11-16T20:55:50.359Z,96490.47
2022-11-16T20:57:51.698Z,96497.41
2022-11-16T20:59:52.986Z,96495.00
2022-11-16T21:01:54.555Z,96490.03
2022-11-16T21:03:55.999Z,96495.22
2022-11-16T21:05:57.285Z,96491.16
2022-11-16T21:07:59.533Z,96495.38
2022-11-16T21:10:19.365Z,96491.31
2022-11-16T21:12:42.771Z,96483.78
2022-11-16T21:14:47.101Z,96486.44
2022-11-16T21:16:48.505Z,96484.06
2022-11-16T21:18:49.812Z,96482.38
2022-11-16T21:20:51.125Z,96486.69
2022-11-16T21:22:52.554Z,96487.56
2022-11-16T21:24:53.921Z,96481.66
2022-11-16T21:26:55.337Z,96481.72
2022-11-16T21:28:56.665Z,96478.41
2022-11-16T21:30:58.011Z,96486.91
2022-11-16T21:32:59.342Z,96492.81
2022-11-16T21:35:01.277Z,96491.97
2022-11-16T21:37:02.625Z,96487.66
2022-11-16T21:39:03.895Z,96484.19
2022-11-16T21:41:06.290Z,96489.25
2022-11-16T21:43:07.695Z,96482.22
2022-11-16T21:45:09.034Z,96481.19
2022-11-16T21:47:10.346Z,96482.75
2022-11-16T21:49:11.671Z,96480.88
2022-11-16T21:51:12.960Z,96486.63
2022-11-16T21:53:14.237Z,96486.44
2022-11-16T21:55:16.251Z,96354.63
2022-11-16T21:57:18.239Z,96488.69
2022-11-16T21:59:19.530Z,96485.09
2022-11-16T22:01:21.331Z,96485.66
2022-11-16T22:03:22.900Z,96487.19
2022-11-16T22:05:42.805Z,96484.34
2022-11-16T22:07:44.142Z,96496.88
2022-11-16T22:09:45.421Z,96496.78
2022-11-16T22:11:46.721Z,96498.50
2022-11-16T22:13:48.053Z,96504.50
2022-11-16T22:15:49.375Z,96505.47
2022-11-16T22:17:50.647Z,96505.56
2022-11-16T22:19:52.088Z,96509.88
2022-11-16T22:21:53.433Z,96501.53
2022-11-16T22:23:54.780Z,96501.78
2022-11-16T22:25:56.294Z,96495.25
2022-11-16T22:28:19.596Z,96493.75
2022-11-16T22:30:19.065Z,96494.81
2022-11-16T22:32:20.365Z,96488.16
2022-11-16T22:34:21.767Z,96493.38
2022-11-16T22:36:23.104Z,96486.72
2022-11-16T22:38:24.430Z,96487.66
2022-11-16T22:40:25.932Z,96486.06
2022-11-16T22:42:27.393Z,96495.47
2022-11-16T22:44:28.709Z,96491.31
2022-11-16T22:46:29.991Z,96491.34
2022-11-16T22:48:31.471Z,96490.66
2022-11-16T22:50:32.759Z,96491.56
2022-11-16T22:52:34.105Z,96499.25
2022-11-16T22:54:37.989Z,96489.19
2022-11-16T22:56:39.316Z,96497.72
2022-11-16T22:58:40.608Z,96486.81
2022-11-16T23:00:42.448Z,96493.66
2022-11-16T23:02:43.951Z,96489.38
2022-11-16T23:04:45.259Z,96488.66
2022-11-16T23:06:46.561Z,96484.44
2022-11-16T23:08:48.449Z,96486.06
2022-11-16T23:11:08.237Z,96484.34
2022-11-16T23:13:28.293Z,96484.25
2022-11-16T23:15:49.911Z,96493.41
2022-11-16T23:17:51.234Z,96484.81
2022-11-16T23:20:17.291Z,96486.38
2022-11-16T23:22:37.735Z,96489.53
2022-11-16T23:24:57.621Z,96480.03
2022-11-16T23:27:17.549Z,96341.53
2022-11-16T23:29:18.839Z,96483.03
2022-11-16T23:31:20.165Z,96473.53
2022-11-16T23:33:41.468Z,96459.72
2022-11-16T23:35:42.788Z,96455.16
2022-11-16T23:37:44.062Z,96461.69
2022-11-16T23:39:45.337Z,96453.00
2022-11-16T23:42:05.738Z,96456.28
2022-11-16T23:44:07.021Z,96467.22
2022-11-16T23:46:08.429Z,96459.66
2022-11-16T23:48:09.713Z,96460.53
2022-11-16T23:50:11.018Z,96459.00
2022-11-16T23:52:12.447Z,96455.72
2022-11-16T23:54:13.840Z,96459.25
2022-11-16T23:56:15.328Z,96463.59
2022-11-16T23:58:16.626Z,96464.66
